Time;durP1;ratioP1;P1;durP2;ratioP2;P2;SDS_P1;SDS_P2;PMS_P1;PMS_P2;Temp;Humidity;BMP_temperature;BMP_pressure;BME280_temperature;BME280_humidity;BME280_pressure;Samples;Min_cycle;Max_cycle;Signal;HPM_P1;HPM_P2
2022/03/01 00:02:10;;;;;;;0.40;0.40;;;2.60;52.20;;;;;;4997169;28;20193;-69
2022/03/01 00:04:35;;;;;;;0.33;0.33;;;2.70;51.70;;;;;;4997378;28;20169;-70
2022/03/01 00:07:02;;;;;;;5.37;1.63;;;2.80;51.60;;;;;;4997498;28;20658;-69
2022/03/01 00:09:28;;;;;;;0.40;0.40;;;2.70;53.00;;;;;;4997228;28;20417;-68
2022/03/01 00:11:53;;;;;;;0.30;0.30;;;2.30;52.00;;;;;;4996876;28;20224;-67
2022/03/01 00:14:19;;;;;;;0.30;0.30;;;2.30;53.50;;;;;;4997335;28;20172;-69
2022/03/01 00:16:44;;;;;;;0.60;0.60;;;2.00;52.80;;;;;;4997160;28;20205;-69
2022/03/01 00:19:10;;;;;;;0.40;0.40;;;2.10;52.90;;;;;;4997232;28;20542;-68
2022/03/01 00:21:36;;;;;;;0.30;0.30;;;2.10;52.90;;;;;;4996767;28;20160;-69
2022/03/01 00:24:01;;;;;;;0.40;0.40;;;2.00;52.30;;;;;;4996933;28;20201;-69
2022/03/01 00:26:27;;;;;;;0.30;0.30;;;1.90;52.40;;;;;;4997162;28;20177;-68
2022/03/01 00:28:53;;;;;;;0.30;0.30;;;2.20;52.90;;;;;;4996841;28;20546;-68
2022/03/01 00:31:18;;;;;;;0.37;0.37;;;2.30;51.50;;;;;;4996811;28;20184;-69
2022/03/01 00:33:44;;;;;;;0.30;0.30;;;2.40;50.80;;;;;;4996794;28;20200;-68
2022/03/01 00:36:10;;;;;;;0.30;0.30;;;2.50;51.20;;;;;;4996859;28;20204;-68
2022/03/01 00:38:35;;;;;;;0.30;0.30;;;2.20;52.80;;;;;;4995976;28;20165;-69
2022/03/01 00:41:02;;;;;;;1.07;1.07;;;2.10;52.90;;;;;;4996549;28;20408;-68
2022/03/01 00:43:27;;;;;;;0.30;0.30;;;2.10;51.00;;;;;;4996601;28;20429;-68
2022/03/01 00:45:54;;;;;;;0.33;0.33;;;2.10;50.70;;;;;;4996669;28;20177;-69
2022/03/01 00:48:20;;;;;;;0.30;0.30;;;2.20;50.30;;;;;;4996610;28;20204;-67
2022/03/01 00:50:46;;;;;;;0.70;0.70;;;2.20;50.00;;;;;;4996366;28;20182;-69
2022/03/01 00:53:12;;;;;;;0.32;0.32;;;1.90;50.50;;;;;;4996498;28;20195;-69
2022/03/01 00:55:38;;;;;;;0.30;0.30;;;1.90;50.80;;;;;;4996372;28;20217;-69
2022/03/01 00:58:04;;;;;;;0.30;0.30;;;2.20;50.50;;;;;;4996429;28;20170;-68
2022/03/01 01:00:31;;;;;;;0.30;0.30;;;2.20;50.40;;;;;;4996457;28;20276;-69
2022/03/01 01:02:57;;;;;;;0.35;0.35;;;2.20;50.20;;;;;;4996413;28;20197;-69
2022/03/01 01:05:22;;;;;;;0.30;0.30;;;2.20;50.00;;;;;;4996246;28;20538;-69
2022/03/01 01:07:49;;;;;;;0.30;0.30;;;2.00;51.20;;;;;;4996421;28;20174;-68
2022/03/01 01:10:15;;;;;;;0.30;0.30;;;1.90;51.20;;;;;;4996017;28;20181;-69
2022/03/01 01:12:41;;;;;;;0.40;0.40;;;1.90;51.60;;;;;;4996020;28;20224;-69
2022/03/01 01:15:09;;;;;;;0.30;0.30;;;1.90;50.80;;;;;;4996090;28;20316;-69
2022/03/01 01:17:34;;;;;;;0.30;0.30;;;1.90;49.80;;;;;;4996235;28;20248;-69
2022/03/01 01:20:01;;;;;;;0.30;0.30;;;1.80;50.10;;;;;;4995977;28;20572;-69
2022/03/01 01:22:42;;;;;;;0.88;0.88;;;2.00;50.20;;;;;;4995860;28;20670;-68
2022/03/01 01:25:12;;;;;;;0.32;0.32;;;2.10;51.00;;;;;;4995992;28;20173;-68
2022/03/01 01:27:43;;;;;;;0.40;0.40;;;2.00;50.80;;;;;;4995979;28;20171;-69
2022/03/01 01:30:14;;;;;;;0.30;0.30;;;1.70;49.60;;;;;;4995785;28;20170;-69
2022/03/01 01:32:41;;;;;;;0.40;0.40;;;1.70;50.20;;;;;;4995868;28;20193;-69
2022/03/01 01:35:08;;;;;;;0.30;0.30;;;2.00;51.00;;;;;;4995738;28;20648;-69
2022/03/01 01:37:34;;;;;;;0.35;0.35;;;2.10;51.00;;;;;;4995791;28;20264;-69
2022/03/01 01:40:01;;;;;;;0.30;0.30;;;2.00;51.30;;;;;;4995406;28;20209;-68
2022/03/01 01:42:27;;;;;;;0.35;0.35;;;1.80;51.80;;;;;;4995725;28;20287;-68
2022/03/01 01:44:52;;;;;;;0.30;0.30;;;1.70;51.60;;;;;;4995475;28;20261;-69
2022/03/01 01:47:18;;;;;;;0.30;0.30;;;1.50;52.00;;;;;;4995660;28;20177;-68
2022/03/01 01:49:44;;;;;;;0.30;0.30;;;1.40;52.80;;;;;;4995291;28;20251;-70
2022/03/01 01:52:09;;;;;;;0.30;0.30;;;1.40;51.80;;;;;;4995236;28;20272;-69
2022/03/01 01:54:35;;;;;;;0.30;0.30;;;1.40;52.80;;;;;;4995334;28;20208;-68
2022/03/01 01:57:01;;;;;;;0.30;0.30;;;1.30;52.60;;;;;;4995350;28;20206;-68
2022/03/01 01:59:27;;;;;;;0.30;0.30;;;1.30;52.40;;;;;;4995375;28;20697;-68
2022/03/01 02:01:52;;;;;;;0.40;0.40;;;1.40;53.30;;;;;;4994954;28;20204;-68
2022/03/01 02:04:18;;;;;;;0.30;0.30;;;1.30;53.80;;;;;;4995253;28;20167;-69
2022/03/01 02:06:54;;;;;;;0.40;0.40;;;1.30;54.20;;;;;;4995495;28;20221;-68
2022/03/01 02:09:20;;;;;;;0.30;0.30;;;1.20;53.90;;;;;;4995139;28;20183;-69
2022/03/01 02:11:46;;;;;;;0.40;0.40;;;0.80;54.70;;;;;;4994803;28;20222;-69
2022/03/01 02:14:12;;;;;;;0.30;0.30;;;1.00;54.80;;;;;;4994909;28;20165;-69
2022/03/01 02:16:39;;;;;;;0.40;0.40;;;1.00;54.00;;;;;;4977384;28;20972;-68
2022/03/01 02:19:05;;;;;;;0.30;0.30;;;0.90;54.40;;;;;;4994960;28;20176;-68
2022/03/01 02:21:31;;;;;;;0.40;0.40;;;1.00;54.80;;;;;;4994887;28;20223;-69
2022/03/01 02:23:57;;;;;;;0.30;0.30;;;1.00;54.30;;;;;;4994773;28;20192;-68
2022/03/01 02:26:22;;;;;;;0.40;0.40;;;0.90;54.70;;;;;;4994909;28;20905;-68
2022/03/01 02:28:48;;;;;;;0.33;0.33;;;0.90;55.20;;;;;;4994922;28;20751;-69
2022/03/01 02:31:13;;;;;;;0.40;0.40;;;0.90;54.70;;;;;;4994600;28;20591;-68
2022/03/01 02:33:39;;;;;;;0.40;0.40;;;1.00;54.90;;;;;;4994611;28;20226;-69
2022/03/01 02:36:05;;;;;;;0.30;0.30;;;1.10;54.90;;;;;;4994673;28;20197;-68
2022/03/01 02:38:30;;;;;;;0.40;0.40;;;1.00;55.10;;;;;;4994672;28;20172;-68
2022/03/01 02:40:56;;;;;;;0.40;0.40;;;1.00;54.90;;;;;;4993155;28;20651;-69
2022/03/01 02:43:22;;;;;;;0.40;0.40;;;1.00;54.50;;;;;;4994591;28;20188;-68
2022/03/01 02:45:47;;;;;;;0.40;0.40;;;1.00;53.30;;;;;;4994651;28;20168;-68
2022/03/01 02:48:13;;;;;;;0.40;0.40;;;1.10;52.50;;;;;;4994640;28;20184;-70
2022/03/01 02:50:39;;;;;;;0.30;0.30;;;1.20;52.40;;;;;;4994253;28;20171;-68
2022/03/01 02:53:04;;;;;;;0.33;0.33;;;1.10;52.40;;;;;;4994433;28;20190;-69
2022/03/01 02:55:30;;;;;;;0.40;0.40;;;1.20;53.30;;;;;;4994262;28;20315;-69
2022/03/01 02:57:56;;;;;;;0.70;0.70;;;1.10;53.90;;;;;;4994389;28;20227;-68
2022/03/01 03:00:21;;;;;;;0.30;0.30;;;1.10;54.30;;;;;;4994518;28;20630;-69
2022/03/01 03:02:48;;;;;;;0.30;0.30;;;1.10;54.80;;;;;;4993662;28;20509;-70
2022/03/01 03:05:13;;;;;;;0.40;0.40;;;1.10;54.70;;;;;;4994175;28;20536;-68
2022/03/01 03:07:39;;;;;;;0.30;0.30;;;1.00;55.00;;;;;;4994298;28;20256;-68
2022/03/01 03:10:05;;;;;;;0.50;0.50;;;0.90;55.20;;;;;;4994078;28;20642;-69
2022/03/01 03:12:31;;;;;;;0.40;0.40;;;0.90;55.50;;;;;;4993911;28;20696;-68
2022/03/01 03:14:56;;;;;;;0.40;0.40;;;0.90;55.60;;;;;;4994523;28;20180;-67
2022/03/01 03:17:22;;;;;;;0.30;0.30;;;0.90;55.60;;;;;;4993955;28;20565;-69
2022/03/01 03:19:48;;;;;;;0.30;0.30;;;0.80;55.20;;;;;;4994425;28;20820;-69
2022/03/01 03:22:14;;;;;;;0.40;0.40;;;0.80;55.30;;;;;;4993859;28;20188;-68
2022/03/01 03:24:40;;;;;;;0.30;0.30;;;0.80;55.10;;;;;;4994009;28;20176;-69
2022/03/01 03:27:05;;;;;;;0.40;0.40;;;0.70;55.00;;;;;;4994142;28;20243;-68
2022/03/01 03:29:31;;;;;;;0.40;0.40;;;0.70;55.00;;;;;;4993935;28;20195;-68
2022/03/01 03:31:57;;;;;;;0.40;0.40;;;0.20;56.80;;;;;;4976388;28;20176;-68
2022/03/01 03:34:24;;;;;;;0.40;0.40;;;0.20;55.00;;;;;;4993936;28;20435;-68
2022/03/01 03:36:50;;;;;;;0.40;0.40;;;0.30;55.20;;;;;;4993862;28;20467;-68
2022/03/01 03:39:16;;;;;;;0.30;0.30;;;0.40;55.80;;;;;;4993989;28;20539;-69
2022/03/01 03:41:42;;;;;;;0.40;0.40;;;0.40;55.60;;;;;;4993630;28;20168;-68
2022/03/01 03:44:08;;;;;;;0.33;0.33;;;0.50;56.00;;;;;;4993742;28;20530;-69
2022/03/01 03:46:34;;;;;;;0.40;0.40;;;0.50;56.30;;;;;;4993932;28;20210;-69
2022/03/01 03:49:00;;;;;;;0.50;0.50;;;0.50;56.50;;;;;;4993837;28;20198;-68
2022/03/01 03:51:26;;;;;;;0.30;0.30;;;0.50;56.40;;;;;;4993828;28;20262;-68
2022/03/01 03:53:52;;;;;;;0.30;0.30;;;0.50;56.60;;;;;;4976177;28;20526;-68
2022/03/01 03:56:18;;;;;;;4.00;1.50;;;0.50;56.40;;;;;;4993772;28;20477;-68
2022/03/01 03:58:44;;;;;;;0.40;0.40;;;0.50;56.10;;;;;;4993672;28;20750;-68
2022/03/01 04:01:10;;;;;;;0.50;0.50;;;0.40;56.00;;;;;;4993678;28;20227;-68
2022/03/01 04:03:36;;;;;;;0.40;0.40;;;0.30;55.60;;;;;;4993665;28;20207;-69
2022/03/01 04:06:03;;;;;;;0.40;0.40;;;0.30;54.80;;;;;;4993739;28;20453;-67
2022/03/01 04:08:29;;;;;;;0.40;0.40;;;0.30;54.70;;;;;;4993844;28;20235;-69
2022/03/01 04:10:56;;;;;;;0.50;0.50;;;0.30;54.00;;;;;;4993481;28;20176;-68
2022/03/01 04:13:23;;;;;;;0.40;0.40;;;0.40;54.10;;;;;;4994009;28;20653;-69
2022/03/01 04:15:49;;;;;;;0.40;0.40;;;0.30;54.30;;;;;;4997160;28;20204;-69
2022/03/01 04:18:14;;;;;;;0.50;0.50;;;0.40;54.40;;;;;;4997263;28;20516;-68
2022/03/01 04:20:40;;;;;;;0.40;0.40;;;0.40;54.40;;;;;;4997106;28;20168;-69
2022/03/01 04:23:06;;;;;;;0.40;0.40;;;0.40;53.10;;;;;;4996977;28;20192;-68
2022/03/01 04:25:31;;;;;;;0.50;0.50;;;0.50;54.50;;;;;;4996969;28;20665;-68
2022/03/01 04:27:57;;;;;;;0.40;0.40;;;0.50;54.90;;;;;;4996853;28;20195;-69
2022/03/01 04:30:23;;;;;;;0.30;0.30;;;0.50;54.80;;;;;;4996981;28;20180;-69
2022/03/01 04:32:50;;;;;;;0.40;0.40;;;0.50;54.10;;;;;;4996782;28;20199;-68
2022/03/01 04:35:16;;;;;;;0.40;0.40;;;0.40;53.40;;;;;;4996776;28;20164;-68
2022/03/01 04:37:42;;;;;;;0.30;0.30;;;0.40;54.00;;;;;;4996905;28;20200;-69
2022/03/01 04:40:11;;;;;;;0.40;0.40;;;0.40;54.40;;;;;;4996721;28;20534;-68
2022/03/01 04:42:36;;;;;;;0.50;0.50;;;0.40;54.70;;;;;;4996635;28;20283;-67
2022/03/01 04:45:05;;;;;;;0.40;0.40;;;0.30;55.50;;;;;;4996724;28;20591;-69
2022/03/01 04:47:31;;;;;;;0.30;0.30;;;0.20;55.80;;;;;;4996916;28;20412;-69
2022/03/01 04:49:58;;;;;;;0.40;0.40;;;0.20;56.00;;;;;;4996582;28;20541;-68
2022/03/01 04:52:24;;;;;;;0.43;0.43;;;0.10;55.90;;;;;;4996643;28;20203;-69
2022/03/01 04:54:50;;;;;;;0.40;0.40;;;0.00;56.30;;;;;;4996689;28;20180;-68
2022/03/01 04:57:16;;;;;;;0.30;0.30;;;-0.10;56.70;;;;;;4996538;28;20458;-68
2022/03/01 04:59:41;;;;;;;0.40;0.40;;;-0.20;56.30;;;;;;4996382;28;20411;-69
2022/03/01 05:02:07;;;;;;;0.40;0.40;;;-0.20;55.80;;;;;;4996210;28;20423;-68
2022/03/01 05:04:33;;;;;;;0.40;0.40;;;-0.20;55.90;;;;;;4996315;28;20932;-68
2022/03/01 05:06:58;;;;;;;0.40;0.40;;;-0.20;56.20;;;;;;4996415;28;20180;-69
2022/03/01 05:09:24;;;;;;;0.40;0.40;;;-0.20;55.60;;;;;;4996095;28;20412;-68
2022/03/01 05:11:51;;;;;;;0.50;0.50;;;-0.10;55.80;;;;;;4995804;28;20200;-68
2022/03/01 05:14:18;;;;;;;0.35;0.35;;;-0.30;55.50;;;;;;4996304;28;20168;-68
2022/03/01 05:16:45;;;;;;;0.40;0.40;;;-0.30;55.70;;;;;;4996097;28;20295;-69
2022/03/01 05:19:11;;;;;;;0.40;0.40;;;-0.30;56.00;;;;;;4996226;28;20168;-68
2022/03/01 05:21:36;;;;;;;0.40;0.40;;;-0.30;56.10;;;;;;4995793;28;20177;-69
2022/03/01 05:24:04;;;;;;;0.40;0.40;;;-0.50;56.50;;;;;;4995410;28;20200;-68
2022/03/01 05:26:29;;;;;;;0.40;0.40;;;-0.60;56.40;;;;;;4996092;28;20290;-68
2022/03/01 05:28:55;;;;;;;0.43;0.43;;;-0.80;56.20;;;;;;4978464;28;20655;-69
2022/03/01 05:31:21;;;;;;;0.60;0.60;;;-0.90;56.10;;;;;;4995813;28;20259;-68
2022/03/01 05:33:48;;;;;;;0.30;0.30;;;-0.80;56.40;;;;;;4995687;28;20656;-68
2022/03/01 05:36:14;;;;;;;0.40;0.40;;;-0.70;56.70;;;;;;4995758;28;20447;-69
2022/03/01 05:38:41;;;;;;;0.40;0.40;;;-0.70;57.00;;;;;;4995625;28;20184;-68
2022/03/01 05:41:08;;;;;;;0.40;0.40;;;-0.70;56.80;;;;;;4995633;28;20218;-67
2022/03/01 05:43:34;;;;;;;0.45;0.45;;;-0.70;57.00;;;;;;4995487;28;20192;-68
2022/03/01 05:46:00;;;;;;;0.50;0.50;;;-0.70;56.50;;;;;;4995493;28;20182;-69
2022/03/01 05:48:26;;;;;;;0.40;0.40;;;-0.70;56.30;;;;;;4995712;28;20530;-69
2022/03/01 05:50:53;;;;;;;0.63;0.63;;;-0.70;56.30;;;;;;4995326;28;20175;-69
2022/03/01 05:53:18;;;;;;;0.57;0.57;;;-0.70;56.20;;;;;;4995273;28;20478;-69
2022/03/01 05:55:44;;;;;;;0.40;0.40;;;-0.80;55.80;;;;;;4995285;28;20211;-68
2022/03/01 05:58:10;;;;;;;0.40;0.40;;;-0.80;56.20;;;;;;4995316;28;20422;-68
2022/03/01 06:00:36;;;;;;;0.50;0.50;;;-0.70;56.20;;;;;;4995091;28;20580;-68
2022/03/01 06:03:01;;;;;;;0.50;0.50;;;-0.70;56.30;;;;;;4995340;28;20427;-69
2022/03/01 06:05:28;;;;;;;0.53;0.53;;;-0.70;56.40;;;;;;4977672;28;20176;-68
2022/03/01 06:07:55;;;;;;;0.40;0.40;;;-0.70;56.60;;;;;;4995050;28;20180;-69
2022/03/01 06:10:22;;;;;;;0.50;0.50;;;-0.80;57.00;;;;;;4994913;28;20587;-69
2022/03/01 06:12:48;;;;;;;0.43;0.43;;;-0.80;57.20;;;;;;4994924;28;20216;-68
2022/03/01 06:15:14;;;;;;;0.50;0.50;;;-0.80;57.20;;;;;;4994960;28;20175;-68
2022/03/01 06:17:40;;;;;;;0.40;0.40;;;-0.80;57.30;;;;;;4994954;28;20207;-68
2022/03/01 06:20:10;;;;;;;0.40;0.40;;;-0.70;56.80;;;;;;4994892;28;20399;-68
2022/03/01 06:22:36;;;;;;;0.40;0.40;;;-0.70;56.70;;;;;;4994857;28;20228;-68
2022/03/01 06:25:02;;;;;;;0.47;0.47;;;-0.60;56.40;;;;;;4995174;28;20559;-68
2022/03/01 06:27:28;;;;;;;0.40;0.40;;;-0.60;56.60;;;;;;4994880;28;20176;-69
2022/03/01 06:29:54;;;;;;;0.40;0.40;;;-0.70;56.20;;;;;;4994670;28;20168;-68
2022/03/01 06:32:19;;;;;;;0.50;0.50;;;-0.70;56.00;;;;;;4994772;28;20200;-69
2022/03/01 06:34:45;;;;;;;0.30;0.30;;;-0.70;56.30;;;;;;4994869;28;20274;-68
2022/03/01 06:37:14;;;;;;;0.50;0.50;;;-0.70;56.40;;;;;;4993997;28;20589;-68
2022/03/01 06:39:44;;;;;;;0.45;0.45;;;-0.70;56.60;;;;;;4994715;28;20462;-68
2022/03/01 06:42:11;;;;;;;0.40;0.40;;;-0.60;56.60;;;;;;4994399;28;20616;-69
2022/03/01 06:44:38;;;;;;;0.45;0.45;;;-0.60;56.30;;;;;;4994466;28;20247;-68
2022/03/01 06:47:04;;;;;;;0.55;0.55;;;-0.50;56.50;;;;;;4994552;28;20227;-68
2022/03/01 06:49:30;;;;;;;0.40;0.40;;;-0.40;56.00;;;;;;4994598;28;20576;-69
2022/03/01 06:51:56;;;;;;;0.40;0.40;;;-0.30;56.40;;;;;;4994343;28;20183;-69
2022/03/01 06:54:21;;;;;;;0.40;0.40;;;-0.20;56.40;;;;;;4994325;28;20407;-68
2022/03/01 06:56:47;;;;;;;0.37;0.37;;;-0.10;55.90;;;;;;4994377;28;20451;-68
2022/03/01 06:59:14;;;;;;;0.40;0.40;;;-0.10;55.80;;;;;;4994998;28;20634;-68
2022/03/01 07:01:40;;;;;;;0.40;0.40;;;-0.20;55.70;;;;;;4994042;28;20599;-68
2022/03/01 07:04:05;;;;;;;0.40;0.40;;;-0.20;55.30;;;;;;4994181;28;20235;-67
2022/03/01 07:06:31;;;;;;;0.40;0.40;;;-0.10;55.60;;;;;;4994247;28;20180;-69
2022/03/01 07:08:57;;;;;;;0.50;0.50;;;0.00;55.30;;;;;;4994263;28;20176;-68
2022/03/01 07:11:22;;;;;;;0.40;0.40;;;0.00;55.80;;;;;;4994052;28;20267;-68
2022/03/01 07:13:49;;;;;;;0.40;0.40;;;-0.10;55.80;;;;;;4994069;28;20275;-69
2022/03/01 07:16:15;;;;;;;0.40;0.40;;;-0.20;55.30;;;;;;4994094;28;20234;-69
2022/03/01 07:18:42;;;;;;;0.40;0.40;;;-0.20;55.40;;;;;;4994058;28;20576;-68
2022/03/01 07:21:08;;;;;;;0.40;0.40;;;-0.10;54.90;;;;;;4993957;28;20665;-68
2022/03/01 07:23:33;;;;;;;0.30;0.30;;;0.00;54.70;;;;;;4994110;28;20196;-68
2022/03/01 07:26:00;;;;;;;0.30;0.30;;;0.10;52.80;;;;;;4994136;28;20442;-69
2022/03/01 07:28:27;;;;;;;0.40;0.40;;;0.50;51.30;;;;;;4994154;28;20169;-68
2022/03/01 07:30:53;;;;;;;0.40;0.40;;;2.00;49.30;;;;;;4993856;28;20175;-68
2022/03/01 07:33:19;;;;;;;0.30;0.30;;;4.00;46.10;;;;;;4993941;28;20211;-69
2022/03/01 07:35:45;;;;;;;0.40;0.40;;;6.10;42.30;;;;;;4993894;28;20219;-69
2022/03/01 07:38:11;;;;;;;0.40;0.40;;;8.10;38.20;;;;;;4993937;28;20176;-68
2022/03/01 07:40:37;;;;;;;0.40;0.40;;;9.50;34.30;;;;;;4993765;28;20497;-67
2022/03/01 07:43:02;;;;;;;0.40;0.40;;;11.20;30.50;;;;;;4993928;28;20227;-69
2022/03/01 07:45:28;;;;;;;0.30;0.30;;;12.50;28.80;;;;;;4993771;28;20164;-68
2022/03/01 07:47:54;;;;;;;0.40;0.40;;;13.20;28.50;;;;;;4977837;28;20183;-69
2022/03/01 07:50:20;;;;;;;0.40;0.40;;;14.20;27.10;;;;;;4997545;28;20174;-69
2022/03/01 07:52:47;;;;;;;0.30;0.30;;;15.10;25.10;;;;;;4997562;28;20275;-69
2022/03/01 07:55:13;;;;;;;0.30;0.30;;;15.30;24.70;;;;;;4997607;28;20255;-68
2022/03/01 07:57:39;;;;;;;1.13;1.13;;;14.90;25.70;;;;;;4997615;28;20198;-68
2022/03/01 08:00:06;;;;;;;3.23;1.67;;;14.90;25.50;;;;;;4997497;28;20545;-67
2022/03/01 08:02:31;;;;;;;0.77;0.77;;;15.60;26.10;;;;;;4997425;28;20191;-68
2022/03/01 08:04:57;;;;;;;0.90;0.90;;;16.30;25.10;;;;;;4997467;28;20453;-66
2022/03/01 08:07:24;;;;;;;0.30;0.30;;;16.80;25.10;;;;;;4997466;28;20243;-67
2022/03/01 08:09:49;;;;;;;0.40;0.40;;;16.90;24.20;;;;;;4997483;28;20897;-67
2022/03/01 08:12:15;;;;;;;1.53;1.23;;;16.90;23.80;;;;;;4996998;28;20558;-68
2022/03/01 08:14:41;;;;;;;0.30;0.30;;;16.50;23.70;;;;;;4997197;28;20176;-67
2022/03/01 08:17:06;;;;;;;0.30;0.30;;;16.10;23.70;;;;;;4997029;28;20200;-66
2022/03/01 08:19:32;;;;;;;0.30;0.30;;;16.20;24.40;;;;;;4997073;28;20175;-68
2022/03/01 08:21:57;;;;;;;0.30;0.30;;;16.60;24.00;;;;;;4997059;28;20172;-66
2022/03/01 08:24:23;;;;;;;0.40;0.40;;;17.20;23.40;;;;;;4997259;28;20219;-67
2022/03/01 08:26:49;;;;;;;0.40;0.40;;;17.90;23.00;;;;;;4996971;28;20179;-67
2022/03/01 08:29:18;;;;;;;0.67;0.67;;;18.50;22.30;;;;;;4997084;28;20172;-67
2022/03/01 08:31:44;;;;;;;0.30;0.30;;;19.10;20.80;;;;;;4996797;28;20202;-67
2022/03/01 08:34:09;;;;;;;0.30;0.30;;;18.90;20.60;;;;;;4996880;28;20447;-68
2022/03/01 08:36:35;;;;;;;0.30;0.30;;;18.70;19.80;;;;;;4996885;28;20222;-67
2022/03/01 08:39:02;;;;;;;0.30;0.30;;;18.80;20.20;;;;;;4996850;28;20406;-67
2022/03/01 08:41:27;;;;;;;0.40;0.40;;;19.00;20.30;;;;;;4996621;28;20408;-67
2022/03/01 08:43:53;;;;;;;0.40;0.40;;;18.90;20.10;;;;;;4996781;28;20443;-67
2022/03/01 08:46:19;;;;;;;0.30;0.30;;;19.40;20.10;;;;;;4997047;28;20232;-68
2022/03/01 08:48:45;;;;;;;0.30;0.30;;;20.10;19.20;;;;;;4996660;28;20164;-67
2022/03/01 08:51:12;;;;;;;0.30;0.30;;;20.00;18.40;;;;;;4996532;28;20780;-67
2022/03/01 08:53:39;;;;;;;0.40;0.40;;;20.20;18.30;;;;;;4996358;28;20741;-67
2022/03/01 08:56:05;;;;;;;0.30;0.30;;;20.70;18.30;;;;;;4996517;28;20461;-66
2022/03/01 08:58:31;;;;;;;0.30;0.30;;;21.20;18.20;;;;;;4978841;28;20423;-67
2022/03/01 09:00:56;;;;;;;0.40;0.40;;;21.70;17.70;;;;;;4995573;28;20196;-66
2022/03/01 09:03:26;;;;;;;0.30;0.30;;;22.30;18.10;;;;;;4996348;28;20271;-67
2022/03/01 09:05:52;;;;;;;0.30;0.30;;;22.90;18.10;;;;;;4996294;28;20173;-68
2022/03/01 09:08:17;;;;;;;0.30;0.30;;;23.50;17.60;;;;;;4979003;28;20462;-68
2022/03/01 09:10:43;;;;;;;0.70;0.70;;;23.70;18.60;;;;;;4996018;28;20422;-67
2022/03/01 09:13:09;;;;;;;0.30;0.30;;;23.90;17.30;;;;;;4995968;28;20243;-67
2022/03/01 09:15:34;;;;;;;0.40;0.40;;;24.30;17.40;;;;;;4996112;28;20174;-67
2022/03/01 09:18:03;;;;;;;0.30;0.30;;;24.30;16.90;;;;;;4996158;28;20170;-68
2022/03/01 09:20:29;;;;;;;0.47;0.47;;;23.90;17.50;;;;;;4996096;28;20166;-68
2022/03/01 09:22:56;;;;;;;0.30;0.30;;;24.10;17.70;;;;;;4996053;28;20528;-68
2022/03/01 09:25:22;;;;;;;0.30;0.30;;;24.30;17.90;;;;;;4995908;28;20492;-68
2022/03/01 09:27:48;;;;;;;0.30;0.30;;;24.60;18.00;;;;;;4995971;28;20412;-67
2022/03/01 09:30:13;;;;;;;1.63;1.60;;;24.60;18.00;;;;;;4995741;28;20498;-68
2022/03/01 09:32:40;;;;;;;0.80;0.80;;;24.80;18.20;;;;;;4996102;28;20195;-67
2022/03/01 09:35:06;;;;;;;0.40;0.40;;;25.10;17.70;;;;;;4995775;28;20176;-68
2022/03/01 09:37:32;;;;;;;0.50;0.50;;;25.40;17.50;;;;;;4995749;28;20549;-67
2022/03/01 09:40:04;;;;;;;0.30;0.30;;;24.30;18.00;;;;;;4995507;28;20439;-68
2022/03/01 09:42:31;;;;;;;1.80;0.97;;;23.70;18.10;;;;;;4995755;28;20426;-69
2022/03/01 09:44:58;;;;;;;0.30;0.30;;;24.20;19.20;;;;;;4995570;28;20831;-67
2022/03/01 09:47:24;;;;;;;0.30;0.30;;;24.70;18.00;;;;;;4995893;28;20404;-66
2022/03/01 09:49:50;;;;;;;0.57;0.57;;;25.30;18.00;;;;;;4995683;28;20420;-68
2022/03/01 09:52:17;;;;;;;0.70;0.70;;;24.90;17.60;;;;;;4995426;28;20959;-66
2022/03/01 09:54:43;;;;;;;0.37;0.37;;;23.90;17.70;;;;;;4995366;28;20504;-67
2022/03/01 09:57:12;;;;;;;0.40;0.40;;;22.80;17.90;;;;;;4995315;28;20995;-68
2022/03/01 09:59:38;;;;;;;0.30;0.30;;;22.40;18.20;;;;;;4995659;28;20402;-68
2022/03/01 10:02:04;;;;;;;0.30;0.30;;;22.50;17.70;;;;;;4995063;28;20429;-67
2022/03/01 10:04:29;;;;;;;0.30;0.30;;;22.40;18.10;;;;;;4995231;28;20178;-67
2022/03/01 10:06:55;;;;;;;0.30;0.30;;;22.20;17.50;;;;;;4995315;28;20179;-67
2022/03/01 10:09:23;;;;;;;0.30;0.30;;;22.50;17.60;;;;;;4995570;28;20659;-68
2022/03/01 10:11:50;;;;;;;0.30;0.30;;;21.40;17.70;;;;;;4994667;28;20212;-68
2022/03/01 10:14:26;;;;;;;0.30;0.30;;;21.10;17.40;;;;;;4994992;28;20990;-67
2022/03/01 10:16:52;;;;;;;0.30;0.30;;;20.70;17.40;;;;;;4977952;28;20450;-68
2022/03/01 10:19:20;;;;;;;0.30;0.30;;;21.00;17.30;;;;;;4995083;28;20760;-66
2022/03/01 10:21:57;;;;;;;0.40;0.40;;;21.00;17.20;;;;;;4994641;28;20162;-68
2022/03/01 10:24:23;;;;;;;0.30;0.30;;;21.00;17.30;;;;;;4995048;28;20386;-67
2022/03/01 10:26:49;;;;;;;0.30;0.30;;;20.30;16.90;;;;;;4995124;28;20403;-66
2022/03/01 10:29:16;;;;;;;0.30;0.30;;;19.80;17.40;;;;;;4994844;28;20434;-67
2022/03/01 10:31:46;;;;;;;0.40;0.40;;;20.50;17.60;;;;;;4994488;28;20769;-68
2022/03/01 10:34:13;;;;;;;0.37;0.37;;;21.60;17.30;;;;;;4994469;28;20433;-67
2022/03/01 10:36:46;;;;;;;0.30;0.30;;;22.60;17.40;;;;;;4994730;28;20458;-69
2022/03/01 10:39:15;;;;;;;0.97;0.97;;;23.10;17.40;;;;;;4994770;28;20778;-68
2022/03/01 10:41:44;;;;;;;0.40;0.40;;;23.60;16.50;;;;;;4994506;28;20442;-68
2022/03/01 10:44:17;;;;;;;0.97;0.87;;;23.30;16.40;;;;;;4994469;28;20820;-67
2022/03/01 10:46:51;;;;;;;0.40;0.40;;;22.60;15.90;;;;;;4994635;28;20767;-67
2022/03/01 10:49:20;;;;;;;0.30;0.30;;;23.00;16.30;;;;;;4994676;28;20742;-67
2022/03/01 10:51:54;;;;;;;0.37;0.37;;;22.60;16.50;;;;;;4994336;28;20775;-68
2022/03/01 10:54:32;;;;;;;0.87;0.87;;;22.50;16.40;;;;;;4994324;28;20775;-67
2022/03/01 10:56:59;;;;;;;1.00;0.87;;;21.90;16.30;;;;;;4994406;28;20461;-67
2022/03/01 10:59:26;;;;;;;0.47;0.47;;;21.50;16.00;;;;;;4994123;28;20406;-68
2022/03/01 11:01:53;;;;;;;0.30;0.30;;;21.20;16.50;;;;;;4993959;28;20884;-68
2022/03/01 11:04:21;;;;;;;2.40;1.53;;;20.40;16.40;;;;;;4994206;28;20407;-67
2022/03/01 11:06:48;;;;;;;0.30;0.30;;;19.90;17.30;;;;;;4994290;28;20402;-66
2022/03/01 11:09:15;;;;;;;1.13;1.13;;;20.20;17.20;;;;;;4994262;28;20414;-67
2022/03/01 11:11:42;;;;;;;0.40;0.40;;;20.10;17.20;;;;;;4993818;28;20425;-69
2022/03/01 11:14:10;;;;;;;0.93;0.93;;;19.60;17.60;;;;;;4993931;28;20844;-68
2022/03/01 11:16:55;;;;;;;0.30;0.30;;;18.40;18.30;;;;;;4994062;28;20462;-68
2022/03/01 11:19:44;;;;;;;0.30;0.30;;;17.10;19.20;;;;;;4994101;28;20399;-67
2022/03/01 11:22:21;;;;;;;0.30;0.30;;;15.80;20.20;;;;;;4995279;28;20430;-66
2022/03/01 11:24:48;;;;;;;0.87;0.87;;;15.10;21.00;;;;;;5000732;28;20404;-67
2022/03/01 11:27:19;;;;;;;0.30;0.30;;;14.00;21.50;;;;;;5000705;28;20917;-68
2022/03/01 11:29:44;;;;;;;0.30;0.30;;;13.10;22.20;;;;;;5000802;28;20920;-67
2022/03/01 11:32:14;;;;;;;0.30;0.30;;;12.90;23.30;;;;;;5000345;28;20423;-69
2022/03/01 11:34:40;;;;;;;0.30;0.30;;;13.10;23.60;;;;;;5000420;28;20599;-69
2022/03/01 11:37:13;;;;;;;0.30;0.30;;;12.90;23.50;;;;;;5000363;28;20478;-70
2022/03/01 11:39:39;;;;;;;0.53;0.53;;;12.50;23.70;;;;;;5000649;28;20406;-69
2022/03/01 11:42:12;;;;;;;0.30;0.30;;;12.50;24.00;;;;;;5000128;28;20403;-69
2022/03/01 11:44:42;;;;;;;0.30;0.30;;;12.00;24.20;;;;;;5000405;28;20410;-70
2022/03/01 11:47:21;;;;;;;0.40;0.40;;;12.00;24.60;;;;;;5000505;28;20422;-69
2022/03/01 11:49:47;;;;;;;0.30;0.30;;;12.30;25.10;;;;;;5000570;28;20445;-69
2022/03/01 11:52:19;;;;;;;0.30;0.30;;;12.40;24.50;;;;;;5000008;28;20458;-69
2022/03/01 11:54:46;;;;;;;0.30;0.30;;;12.70;24.90;;;;;;5000243;28;20170;-67
2022/03/01 11:57:13;;;;;;;0.30;0.30;;;12.80;24.40;;;;;;5000199;28;20446;-68
2022/03/01 11:59:41;;;;;;;0.40;0.40;;;12.30;24.40;;;;;;5000394;28;20395;-66
2022/03/01 12:02:09;;;;;;;1.00;1.00;;;12.30;25.60;;;;;;5000090;28;20459;-68
2022/03/01 12:04:44;;;;;;;0.30;0.30;;;12.30;25.80;;;;;;5000165;28;20414;-67
2022/03/01 12:07:10;;;;;;;0.30;0.30;;;12.30;25.90;;;;;;5000229;28;20419;-66
2022/03/01 12:09:39;;;;;;;0.40;0.40;;;11.70;26.20;;;;;;5000309;28;20418;-67
2022/03/01 12:12:09;;;;;;;0.30;0.30;;;11.30;27.00;;;;;;4999833;28;20608;-68
2022/03/01 12:14:36;;;;;;;0.30;0.30;;;11.10;27.70;;;;;;4982616;28;20510;-68
2022/03/01 12:17:03;;;;;;;0.30;0.30;;;10.60;28.40;;;;;;4999971;28;20457;-68
2022/03/01 12:19:31;;;;;;;0.85;0.73;;;10.50;29.20;;;;;;5000127;28;20494;-68
2022/03/01 12:21:58;;;;;;;0.30;0.30;;;10.50;29.60;;;;;;5000028;28;20512;-67
2022/03/01 12:24:29;;;;;;;0.30;0.30;;;10.50;29.90;;;;;;4999980;28;20161;-68
2022/03/01 12:27:00;;;;;;;0.30;0.30;;;10.60;29.70;;;;;;4999939;28;20180;-68
2022/03/01 12:29:36;;;;;;;1.70;1.60;;;10.30;29.60;;;;;;5000248;28;20164;-68
2022/03/01 12:32:10;;;;;;;1.45;1.45;;;10.20;29.80;;;;;;4999715;28;20184;-67
2022/03/01 12:34:37;;;;;;;0.40;0.40;;;10.30;30.50;;;;;;4996843;28;20610;-69
2022/03/01 12:37:09;;;;;;;0.40;0.40;;;10.30;30.40;;;;;;4996696;28;20247;-68
2022/03/01 12:39:36;;;;;;;0.30;0.30;;;10.30;30.40;;;;;;4996802;28;20165;-69
2022/03/01 12:42:02;;;;;;;0.45;0.45;;;10.40;31.00;;;;;;4996633;28;20175;-69
2022/03/01 12:44:30;;;;;;;0.80;0.80;;;10.40;31.00;;;;;;4996998;28;20172;-68
2022/03/01 12:46:58;;;;;;;0.40;0.40;;;10.60;31.30;;;;;;4996912;28;20223;-68
2022/03/01 12:49:24;;;;;;;0.30;0.30;;;10.60;31.20;;;;;;4996867;28;20222;-67